Time,TemperatureF,DewpointF,PressureIn,WindDirection,WindDirectionDegrees,WindSpeedMPH,WindSpeedGustMPH,Humidity,HourlyPrecipIn,Conditions,Clouds,dailyrainin,SoftwareType,DateUTC
2013-03-07 00:04:00,29.1,25.7,25.03,SW,228,10.0,-999.0,87,-99.99,,,-99.99,dwt +perl,2013-03-07 08:04:00,
2013-03-07 00:14:00,29.4,24.9,25.02,SW,228,9.0,-999.0,83,-99.99,,,-99.99,dwt +perl,2013-03-07 08:14:00,
2013-03-07 00:19:00,29.2,25.0,25.02,SW,228,7.0,-999.0,84,-99.99,,,-99.99,dwt +perl,2013-03-07 08:19:00,
2013-03-07 00:24:00,29.3,23.9,25.02,SW,229,11.0,-999.0,80,-99.99,,,-99.99,dwt +perl,2013-03-07 08:24:00,
2013-03-07 00:29:00,29.4,23.4,25.02,SW,214,12.0,-999.0,78,-99.99,,,-99.99,dwt +perl,2013-03-07 08:29:00,
2013-03-07 00:39:00,29.6,23.9,25.03,SW,224,8.0,-999.0,79,-99.99,,,-99.99,dwt +perl,2013-03-07 08:39:00,
2013-03-07 00:44:00,29.3,24.2,25.02,SW,214,9.0,-999.0,81,-99.99,,,-99.99,dwt +perl,2013-03-07 08:44:00,
2013-03-07 00:49:00,29.6,23.9,25.02,SW,236,10.0,-999.0,79,-99.99,,,-99.99,dwt +perl,2013-03-07 08:49:00,
2013-03-07 00:54:00,29.6,24.2,25.02,SSW,204,4.0,-999.0,80,-99.99,,,-99.99,dwt +perl,2013-03-07 08:54:00,
2013-03-07 01:04:00,29.2,24.4,25.03,SSW,199,7.0,-999.0,82,-99.99,,,-99.99,dwt +perl,2013-03-07 09:04:00,
2013-03-07 01:09:00,29.2,24.7,25.02,SW,231,6.0,-999.0,83,-99.99,,,-99.99,dwt +perl,2013-03-07 09:09:00,
2013-03-07 01:19:00,29.3,24.8,25.02,SW,217,11.0,-999.0,83,-99.99,,,-99.99,dwt +perl,2013-03-07 09:19:00,
2013-03-07 01:24:00,29.5,25.0,25.02,WSW,245,10.0,-999.0,83,-99.99,,,-99.99,dwt +perl,2013-03-07 09:24:00,
2013-03-07 01:29:00,29.5,25.0,25.01,WSW,241,21.0,-999.0,83,-99.99,,,-99.99,dwt +perl,2013-03-07 09:29:00,
2013-03-07 01:34:00,29.7,25.2,25.01,SW,224,7.0,-999.0,83,-99.99,,,-99.99,dwt +perl,2013-03-07 09:34:00,
2013-03-07 01:39:00,29.7,24.9,25.01,WSW,245,15.0,-999.0,82,-99.99,,,-99.99,dwt +perl,2013-03-07 09:39:00,
2013-03-07 01:44:00,29.7,24.9,25.01,SSW,207,9.0,-999.0,82,-99.99,,,-99.99,dwt +perl,2013-03-07 09:44:00,
2013-03-07 01:49:00,29.6,25.1,25.01,SSW,213,8.0,-999.0,83,-99.99,,,-99.99,dwt +perl,2013-03-07 09:49:00,
2013-03-07 01:54:00,29.4,24.9,25.01,SW,218,5.0,-999.0,83,-99.99,,,-99.99,dwt +perl,2013-03-07 09:54:00,
2013-03-07 01:59:00,29.3,25.1,25.01,SW,214,8.0,-999.0,84,-99.99,,,-99.99,dwt +perl,2013-03-07 09:59:00,
2013-03-07 02:09:00,29.3,25.1,25.01,SW,224,5.0,-999.0,84,-99.99,,,-99.99,dwt +perl,2013-03-07 10:09:00,
2013-03-07 02:14:00,29.2,25.0,25.01,WSW,240,7.0,-999.0,84,-99.99,,,-99.99,dwt +perl,2013-03-07 10:14:00,
2013-03-07 02:19:00,29.1,24.9,25.01,West,260,4.0,-999.0,84,-99.99,,,-99.99,dwt +perl,2013-03-07 10:19:00,
2013-03-07 02:24:00,29.1,24.9,25.01,WSW,237,7.0,-999.0,84,-99.99,,,-99.99,dwt +perl,2013-03-07 10:24:00,
2013-03-07 02:34:00,29.1,24.6,25.01,SW,234,8.0,-999.0,83,-99.99,,,-99.99,dwt +perl,2013-03-07 10:34:00,
2013-03-07 02:44:00,29.2,24.4,25.00,SW,222,9.0,-999.0,82,-99.99,,,-99.99,dwt +perl,2013-03-07 10:44:00,
2013-03-07 02:49:00,29.3,24.2,25.00,SW,235,16.0,-999.0,81,-99.99,,,-99.99,dwt +perl,2013-03-07 10:49:00,
2013-03-07 02:54:00,29.4,24.3,25.00,SW,235,8.0,-999.0,81,-99.99,,,-99.99,dwt +perl,2013-03-07 10:54:00,
2013-03-07 02:59:00,29.4,24.6,25.00,WSW,249,5.0,-999.0,82,-99.99,,,-99.99,dwt +perl,2013-03-07 10:59:00,
2013-03-07 03:04:00,29.0,24.8,25.01,WSW,239,6.0,-999.0,84,-99.99,,,-99.99,dwt +perl,2013-03-07 11:04:00,
2013-03-07 03:09:00,28.9,24.7,25.00,WSW,252,6.0,-999.0,84,-99.99,,,-99.99,dwt +perl,2013-03-07 11:09:00,
2013-03-07 03:14:00,28.8,24.6,25.00,WSW,237,7.0,-999.0,84,-99.99,,,-99.99,dwt +perl,2013-03-07 11:14:00,
2013-03-07 03:19:00,28.7,24.8,25.00,SW,234,6.0,-999.0,85,-99.99,,,-99.99,dwt +perl,2013-03-07 11:19:00,
2013-03-07 03:24:00,28.5,24.6,25.00,SW,230,5.0,-999.0,85,-99.99,,,-99.99,dwt +perl,2013-03-07 11:24:00,
2013-03-07 03:29:00,28.6,25.0,25.00,WSW,237,7.0,-999.0,86,-99.99,,,-99.99,dwt +perl,2013-03-07 11:29:00,
2013-03-07 03:34:00,28.6,25.0,25.00,WSW,238,8.0,-999.0,86,-99.99,,,-99.99,dwt +perl,2013-03-07 11:34:00,
2013-03-07 03:39:00,28.5,25.1,25.00,WSW,237,5.0,-999.0,87,-99.99,,,-99.99,dwt +perl,2013-03-07 11:39:00,
2013-03-07 03:49:00,28.5,25.4,25.00,SW,224,7.0,-999.0,88,-99.99,,,-99.99,dwt +perl,2013-03-07 11:49:00,
2013-03-07 03:54:00,28.4,25.3,25.00,WSW,239,6.0,-999.0,88,-99.99,,,-99.99,dwt +perl,2013-03-07 11:54:00,
2013-03-07 03:59:00,28.4,25.3,25.00,SW,216,6.0,-999.0,88,-99.99,,,-99.99,dwt +perl,2013-03-07 11:59:00,
2013-03-07 04:04:00,28.2,25.4,25.00,WSW,238,5.0,-999.0,89,-99.99,,,-99.99,dwt +perl,2013-03-07 12:04:00,
2013-03-07 04:09:00,28.1,25.3,25.00,WSW,239,1.0,-999.0,89,-99.99,,,-99.99,dwt +perl,2013-03-07 12:09:00,
2013-03-07 04:14:00,28.1,25.3,24.99,SW,236,3.0,-999.0,89,-99.99,,,-99.99,dwt +perl,2013-03-07 12:14:00,
2013-03-07 04:24:00,28.3,25.8,24.99,SW,224,9.0,-999.0,90,-99.99,,,-99.99,dwt +perl,2013-03-07 12:24:00,
2013-03-07 04:29:00,28.5,25.7,24.99,SW,236,8.0,-999.0,89,-99.99,,,-99.99,dwt +perl,2013-03-07 12:29:00,
2013-03-07 04:34:00,28.6,25.8,24.99,SW,236,3.0,-999.0,89,-99.99,,,-99.99,dwt +perl,2013-03-07 12:34:00,
2013-03-07 04:39:00,28.6,25.8,24.99,WSW,240,3.0,-999.0,89,-99.99,,,-99.99,dwt +perl,2013-03-07 12:39:00,
2013-03-07 04:49:00,28.4,25.6,24.99,SW,232,5.0,-999.0,89,-99.99,,,-99.99,dwt +perl,2013-03-07 12:49:00,
2013-03-07 04:54:00,28.4,25.6,24.99,SSW,211,5.0,-999.0,89,-99.99,,,-99.99,dwt +perl,2013-03-07 12:54:00,
2013-03-07 04:59:00,28.3,25.8,24.99,WSW,239,9.0,-999.0,90,-99.99,,,-99.99,dwt +perl,2013-03-07 12:59:00,
2013-03-07 05:04:00,28.2,25.6,24.99,SW,224,5.0,-999.0,90,-99.99,,,-99.99,dwt +perl,2013-03-07 13:04:00,
2013-03-07 05:09:00,28.3,25.8,24.99,WSW,237,9.0,-999.0,90,-99.99,,,-99.99,dwt +perl,2013-03-07 13:09:00,
2013-03-07 05:14:00,28.4,25.6,24.99,SW,235,9.0,-999.0,89,-99.99,,,-99.99,dwt +perl,2013-03-07 13:14:00,
2013-03-07 05:19:00,28.5,25.7,24.99,SW,231,10.0,-999.0,89,-99.99,,,-99.99,dwt +perl,2013-03-07 13:19:00,
2013-03-07 05:24:00,28.5,25.7,24.99,WSW,242,14.0,-999.0,89,-99.99,,,-99.99,dwt +perl,2013-03-07 13:24:00,
2013-03-07 05:29:00,28.6,25.5,24.99,SW,231,9.0,-999.0,88,-99.99,,,-99.99,dwt +perl,2013-03-07 13:29:00,
2013-03-07 05:39:00,28.6,25.0,24.99,SW,231,6.0,-999.0,86,-99.99,,,-99.99,dwt +perl,2013-03-07 13:39:00,
2013-03-07 05:44:00,28.7,24.5,24.99,WSW,237,6.0,-999.0,84,-99.99,,,-99.99,dwt +perl,2013-03-07 13:44:00,
2013-03-07 05:49:00,28.7,24.5,24.99,SW,225,3.0,-999.0,84,-99.99,,,-99.99,dwt +perl,2013-03-07 13:49:00,
2013-03-07 05:54:00,28.8,24.3,24.99,SW,224,0.0,-999.0,83,-99.99,,,-99.99,dwt +perl,2013-03-07 13:54:00,
2013-03-07 05:59:00,28.8,23.4,24.99,SSW,198,2.0,-999.0,80,-99.99,,,-99.99,dwt +perl,2013-03-07 13:59:00,
2013-03-07 06:04:00,28.9,23.8,24.99,South,182,2.0,-999.0,81,-99.99,,,-99.99,dwt +perl,2013-03-07 14:04:00,
2013-03-07 06:09:00,29.0,23.0,24.99,SSW,206,8.0,-999.0,78,-99.99,,,-99.99,dwt +perl,2013-03-07 14:09:00,
2013-03-07 06:14:00,29.2,23.5,24.99,SW,235,8.0,-999.0,79,-99.99,,,-99.99,dwt +perl,2013-03-07 14:14:00,
2013-03-07 06:19:00,29.3,22.7,24.99,SSW,211,6.0,-999.0,76,-99.99,,,-99.99,dwt +perl,2013-03-07 14:19:00,
2013-03-07 06:24:00,29.5,22.9,24.99,SW,232,5.0,-999.0,76,-99.99,,,-99.99,dwt +perl,2013-03-07 14:24:00,
2013-03-07 06:29:00,29.3,23.0,24.99,SSW,206,1.0,-999.0,77,-99.99,,,-99.99,dwt +perl,2013-03-07 14:29:00,
2013-03-07 06:34:00,29.3,22.7,24.99,SSW,204,2.0,-999.0,76,-99.99,,,-99.99,dwt +perl,2013-03-07 14:34:00,
2013-03-07 06:44:00,29.6,23.0,24.99,SSW,192,0.0,-999.0,76,-99.99,,,-99.99,dwt +perl,2013-03-07 14:44:00,
2013-03-07 06:49:00,29.4,22.8,24.99,SW,214,10.0,-999.0,76,-99.99,,,-99.99,dwt +perl,2013-03-07 14:49:00,
2013-03-07 06:54:00,29.0,23.3,24.99,SSW,210,8.0,-999.0,79,-99.99,,,-99.99,dwt +perl,2013-03-07 14:54:00,
2013-03-07 06:59:00,28.9,23.5,24.99,SW,214,10.0,-999.0,80,-99.99,,,-99.99,dwt +perl,2013-03-07 14:59:00,
2013-03-07 07:09:00,29.0,23.0,24.99,SSW,201,12.0,-999.0,78,-99.99,,,-99.99,dwt +perl,2013-03-07 15:09:00,
2013-03-07 07:14:00,29.1,23.1,24.99,SW,217,14.0,-999.0,78,-99.99,,,-99.99,dwt +perl,2013-03-07 15:14:00,
2013-03-07 07:19:00,29.2,23.2,24.99,SW,220,10.0,-999.0,78,-99.99,,,-99.99,dwt +perl,2013-03-07 15:19:00,
2013-03-07 07:29:00,29.0,24.2,24.99,SW,229,7.0,-999.0,82,-99.99,,,-99.99,dwt +perl,2013-03-07 15:29:00,
2013-03-07 07:34:00,28.9,24.7,24.99,SW,218,8.0,-999.0,84,-99.99,,,-99.99,dwt +perl,2013-03-07 15:34:00,
2013-03-07 07:39:00,28.7,24.8,24.99,South,190,9.0,-999.0,85,-99.99,,,-99.99,dwt +perl,2013-03-07 15:39:00,
2013-03-07 07:44:00,28.7,24.8,24.99,SSW,194,10.0,-999.0,85,-99.99,,,-99.99,dwt +perl,2013-03-07 15:44:00,
2013-03-07 07:54:00,28.7,24.8,25.00,SW,235,10.0,-999.0,85,-99.99,,,-99.99,dwt +perl,2013-03-07 15:54:00,
2013-03-07 07:59:00,28.7,24.5,25.00,SSW,209,8.0,-999.0,84,-99.99,,,-99.99,dwt +perl,2013-03-07 15:59:00,
2013-03-07 08:04:00,28.8,24.6,25.00,SSW,206,13.0,-999.0,84,-99.99,,,-99.99,dwt +perl,2013-03-07 16:04:00,
2013-03-07 08:09:00,28.9,24.7,25.00,WSW,237,7.0,-999.0,84,-99.99,,,-99.99,dwt +perl,2013-03-07 16:09:00,
2013-03-07 08:14:00,28.9,24.7,25.00,SW,217,12.0,-999.0,84,-99.99,,,-99.99,dwt +perl,2013-03-07 16:14:00,
2013-03-07 08:19:00,28.9,24.7,25.00,SW,218,13.0,-999.0,84,-99.99,,,-99.99,dwt +perl,2013-03-07 16:19:00,
2013-03-07 08:24:00,28.9,25.0,25.00,SSW,201,9.0,-999.0,85,-99.99,,,-99.99,dwt +perl,2013-03-07 16:24:00,
2013-03-07 08:34:00,28.7,25.3,25.00,SSW,195,11.0,-999.0,87,-99.99,,,-99.99,dwt +perl,2013-03-07 16:34:00,
2013-03-07 08:39:00,28.8,25.7,25.00,SSW,205,14.0,-999.0,88,-99.99,,,-99.99,dwt +perl,2013-03-07 16:39:00,
2013-03-07 08:44:00,28.7,25.6,25.00,SSW,210,13.0,-999.0,88,-99.99,,,-99.99,dwt +perl,2013-03-07 16:44:00,
2013-03-07 08:54:00,28.8,26.0,24.99,SW,227,12.0,-999.0,89,-99.99,,,-99.99,dwt +perl,2013-03-07 16:54:00,
2013-03-07 08:59:00,29.0,26.2,25.00,SW,222,9.0,-999.0,89,-99.99,,,-99.99,dwt +perl,2013-03-07 16:59:00,
2013-03-07 09:04:00,29.4,26.3,25.00,SW,215,10.0,-999.0,88,-99.99,,,-99.99,dwt +perl,2013-03-07 17:04:00,
2013-03-07 09:14:00,30.2,24.8,24.99,SSW,207,17.0,-999.0,80,-99.99,,,-99.99,dwt +perl,2013-03-07 17:14:00,
2013-03-07 09:24:00,30.5,26.2,25.00,SSW,201,11.0,-999.0,84,-99.99,,,-99.99,dwt +perl,2013-03-07 17:24:00,
2013-03-07 09:29:00,30.6,26.4,25.00,SW,220,9.0,-999.0,84,-99.99,,,-99.99,dwt +perl,2013-03-07 17:29:00,
2013-03-07 09:39:00,31.5,26.9,25.00,SSW,207,1.0,-999.0,83,-99.99,,,-99.99,dwt +perl,2013-03-07 17:39:00,
2013-03-07 09:44:00,32.0,27.7,25.00,SW,231,5.0,-999.0,84,-99.99,,,-99.99,dwt +perl,2013-03-07 17:44:00,
2013-03-07 09:49:00,32.0,27.7,25.00,SW,234,3.0,-999.0,84,-99.99,,,-99.99,dwt +perl,2013-03-07 17:49:00,
2013-03-07 09:51:00,32.9,30.3,25.00,SSW,210,0.0,-999.0,90,-99.99,,,-99.99,dwt +perl,2013-03-07 17:51:00,
2013-03-07 09:54:00,32.6,29.2,25.00,WSW,253,7.0,-999.0,87,-99.99,,,-99.99,dwt +perl,2013-03-07 17:54:00,
2013-03-07 09:59:00,32.9,30.3,25.00,SSW,210,0.0,-999.0,90,-99.99,,,-99.99,dwt +perl,2013-03-07 17:59:00,
2013-03-07 10:14:00,33.7,31.4,25.00,SSW,211,8.0,-999.0,91,-99.99,,,-99.99,dwt +perl,2013-03-07 18:14:00,
2013-03-07 10:19:00,33.8,31.5,25.00,SSW,210,7.0,-999.0,91,-99.99,,,-99.99,dwt +perl,2013-03-07 18:19:00,
2013-03-07 10:24:00,33.4,30.8,25.00,SW,227,12.0,-999.0,90,-99.99,,,-99.99,dwt +perl,2013-03-07 18:24:00,
2013-03-07 10:29:00,33.6,31.2,25.00,SSW,208,7.0,-999.0,91,-99.99,,,-99.99,dwt +perl,2013-03-07 18:29:00,
2013-03-07 10:34:00,33.7,31.1,24.99,SSW,194,8.0,-999.0,90,-99.99,,,-99.99,dwt +perl,2013-03-07 18:34:00,
2013-03-07 10:39:00,34.4,32.0,24.99,SSW,212,8.0,-999.0,91,-99.99,,,-99.99,dwt +perl,2013-03-07 18:39:00,
2013-03-07 10:44:00,34.4,31.8,25.00,SW,218,5.0,-999.0,90,-99.99,,,-99.99,dwt +perl,2013-03-07 18:44:00,
2013-03-07 10:49:00,34.7,32.1,25.00,SSW,205,2.0,-999.0,90,-99.99,,,-99.99,dwt +perl,2013-03-07 18:49:00,
2013-03-07 10:54:00,34.3,31.1,24.99,SSW,197,3.0,-999.0,88,-99.99,,,-99.99,dwt +perl,2013-03-07 18:54:00,
2013-03-07 10:59:00,34.2,31.3,25.00,SSW,208,15.0,-999.0,89,-99.99,,,-99.99,dwt +perl,2013-03-07 18:59:00,
2013-03-07 11:04:00,33.7,30.5,25.00,SW,215,11.0,-999.0,88,-99.99,,,-99.99,dwt +perl,2013-03-07 19:04:00,
2013-03-07 11:09:00,33.3,30.1,25.00,SW,222,7.0,-999.0,88,-99.99,,,-99.99,dwt +perl,2013-03-07 19:09:00,
2013-03-07 11:14:00,33.3,30.4,25.00,SSW,212,9.0,-999.0,89,-99.99,,,-99.99,dwt +perl,2013-03-07 19:14:00,
2013-03-07 11:19:00,34.0,31.1,25.00,South,191,14.0,-999.0,89,-99.99,,,-99.99,dwt +perl,2013-03-07 19:19:00,
2013-03-07 11:24:00,34.1,30.6,25.00,SW,219,9.0,-999.0,87,-99.99,,,-99.99,dwt +perl,2013-03-07 19:24:00,
2013-03-07 11:26:00,34.7,29.5,25.00,SW,229,11.0,-999.0,81,-99.99,,,-99.99,dwt +perl,2013-03-07 19:26:00,
2013-03-07 11:29:00,34.7,30.4,25.00,SSW,196,5.0,-999.0,84,-99.99,,,-99.99,dwt +perl,2013-03-07 19:29:00,
2013-03-07 11:34:00,34.7,29.5,25.00,SW,229,11.0,-999.0,81,-99.99,,,-99.99,dwt +perl,2013-03-07 19:34:00,
2013-03-07 11:54:00,34.9,29.1,25.00,SSW,208,7.0,-999.0,79,-99.99,,,-99.99,dwt +perl,2013-03-07 19:54:00,
2013-03-07 11:59:00,35.7,29.2,25.00,SSW,208,5.0,-999.0,77,-99.99,,,-99.99,dwt +perl,2013-03-07 19:59:00,
2013-03-07 12:04:00,35.6,29.1,24.99,SSW,212,7.0,-999.0,77,-99.99,,,-99.99,dwt +perl,2013-03-07 20:04:00,
2013-03-07 12:09:00,35.6,28.5,24.99,SSW,199,7.0,-999.0,75,-99.99,,,-99.99,dwt +perl,2013-03-07 20:09:00,
2013-03-07 12:14:00,35.4,28.6,24.99,SSW,206,14.0,-999.0,76,-99.99,,,-99.99,dwt +perl,2013-03-07 20:14:00,
2013-03-07 12:19:00,35.0,29.1,24.99,SSW,210,3.0,-999.0,79,-99.99,,,-99.99,dwt +perl,2013-03-07 20:19:00,
2013-03-07 12:24:00,35.2,29.4,24.99,SW,218,12.0,-999.0,79,-99.99,,,-99.99,dwt +perl,2013-03-07 20:24:00,
2013-03-07 12:29:00,35.0,28.8,24.99,SSW,194,6.0,-999.0,78,-99.99,,,-99.99,dwt +perl,2013-03-07 20:29:00,
2013-03-07 12:34:00,34.8,29.0,24.98,SSW,199,9.0,-999.0,79,-99.99,,,-99.99,dwt +perl,2013-03-07 20:34:00,
2013-03-07 12:39:00,34.8,28.3,24.98,SSW,212,9.0,-999.0,77,-99.99,,,-99.99,dwt +perl,2013-03-07 20:39:00,
2013-03-07 12:44:00,35.0,28.8,24.98,SSW,212,7.0,-999.0,78,-99.99,,,-99.99,dwt +perl,2013-03-07 20:44:00,
2013-03-07 12:49:00,34.7,28.5,24.98,SSW,210,3.0,-999.0,78,-99.99,,,-99.99,dwt +perl,2013-03-07 20:49:00,
2013-03-07 12:54:00,34.7,29.5,24.98,SSW,200,6.0,-999.0,81,-99.99,,,-99.99,dwt +perl,2013-03-07 20:54:00,
2013-03-07 12:59:00,34.9,29.7,24.98,SSW,212,7.0,-999.0,81,-99.99,,,-99.99,dwt +perl,2013-03-07 20:59:00,
2013-03-07 13:04:00,34.8,29.3,24.98,SSW,193,6.0,-999.0,80,-99.99,,,-99.99,dwt +perl,2013-03-07 21:04:00,
2013-03-07 13:06:00,34.6,29.7,24.97,SW,223,4.0,-999.0,82,-99.99,,,-99.99,dwt +perl,2013-03-07 21:06:00,
2013-03-07 13:09:00,34.7,29.5,24.97,SSW,195,6.0,-999.0,81,-99.99,,,-99.99,dwt +perl,2013-03-07 21:09:00,
2013-03-07 13:14:00,34.6,29.7,24.97,SW,223,4.0,-999.0,82,-99.99,,,-99.99,dwt +perl,2013-03-07 21:14:00,
2013-03-07 13:24:00,34.6,29.7,24.97,SE,143,4.0,-999.0,82,-99.99,,,-99.99,dwt +perl,2013-03-07 21:24:00,
2013-03-07 13:29:00,35.2,30.9,24.96,SSW,193,0.0,-999.0,84,-99.99,,,-99.99,dwt +perl,2013-03-07 21:29:00,
2013-03-07 13:34:00,35.7,30.5,24.96,South,172,7.0,-999.0,81,-99.99,,,-99.99,dwt +perl,2013-03-07 21:34:00,
2013-03-07 13:39:00,36.0,30.4,24.96,SSW,201,1.0,-999.0,80,-99.99,,,-99.99,dwt +perl,2013-03-07 21:39:00,
2013-03-07 13:44:00,36.3,30.7,24.96,South,179,1.0,-999.0,80,-99.99,,,-99.99,dwt +perl,2013-03-07 21:44:00,
2013-03-07 13:49:00,36.4,30.5,24.96,SSW,212,6.0,-999.0,79,-99.99,,,-99.99,dwt +perl,2013-03-07 21:49:00,
2013-03-07 13:54:00,36.5,30.6,24.96,SSE,154,2.0,-999.0,79,-99.99,,,-99.99,dwt +perl,2013-03-07 21:54:00,
2013-03-07 13:59:00,36.4,29.9,24.96,West,264,5.0,-999.0,77,-99.99,,,-99.99,dwt +perl,2013-03-07 21:59:00,
2013-03-07 14:04:00,36.4,30.2,24.95,SE,133,3.0,-999.0,78,-99.99,,,-99.99,dwt +perl,2013-03-07 22:04:00,
2013-03-07 14:09:00,36.4,29.6,24.95,SSW,193,5.0,-999.0,76,-99.99,,,-99.99,dwt +perl,2013-03-07 22:09:00,
2013-03-07 14:14:00,36.4,29.6,24.95,SSW,200,6.0,-999.0,76,-99.99,,,-99.99,dwt +perl,2013-03-07 22:14:00,
2013-03-07 14:19:00,36.3,29.5,24.95,South,184,0.0,-999.0,76,-99.99,,,-99.99,dwt +perl,2013-03-07 22:19:00,
2013-03-07 14:24:00,36.6,29.8,24.95,SSW,208,6.0,-999.0,76,-99.99,,,-99.99,dwt +perl,2013-03-07 22:24:00,
2013-03-07 14:34:00,36.1,30.2,24.95,South,190,0.0,-999.0,79,-99.99,,,-99.99,dwt +perl,2013-03-07 22:34:00,
2013-03-07 14:39:00,35.9,29.1,24.95,South,174,0.0,-999.0,76,-99.99,,,-99.99,dwt +perl,2013-03-07 22:39:00,
2013-03-07 14:44:00,36.0,29.8,24.95,South,191,7.0,-999.0,78,-99.99,,,-99.99,dwt +perl,2013-03-07 22:44:00,
2013-03-07 14:49:00,36.0,29.5,24.95,South,172,0.0,-999.0,77,-99.99,,,-99.99,dwt +perl,2013-03-07 22:49:00,
2013-03-07 14:54:00,36.3,29.5,24.95,SSW,194,1.0,-999.0,76,-99.99,,,-99.99,dwt +perl,2013-03-07 22:54:00,
2013-03-07 14:59:00,36.5,30.0,24.95,SSW,192,5.0,-999.0,77,-99.99,,,-99.99,dwt +perl,2013-03-07 22:59:00,
2013-03-07 15:04:00,36.2,29.7,24.95,South,176,7.0,-999.0,77,-99.99,,,-99.99,dwt +perl,2013-03-07 23:04:00,
2013-03-07 15:09:00,36.0,28.9,24.95,SW,216,6.0,-999.0,75,-99.99,,,-99.99,dwt +perl,2013-03-07 23:09:00,
2013-03-07 15:14:00,36.0,28.5,24.94,South,181,4.0,-999.0,74,-99.99,,,-99.99,dwt +perl,2013-03-07 23:14:00,
2013-03-07 15:19:00,36.0,28.5,24.94,SSW,201,10.0,-999.0,74,-99.99,,,-99.99,dwt +perl,2013-03-07 23:19:00,
2013-03-07 15:24:00,36.0,28.9,24.95,SSW,205,7.0,-999.0,75,-99.99,,,-99.99,dwt +perl,2013-03-07 23:24:00,
2013-03-07 15:29:00,36.2,28.7,24.94,SW,234,7.0,-999.0,74,-99.99,,,-99.99,dwt +perl,2013-03-07 23:29:00,
2013-03-07 15:34:00,36.3,29.1,24.94,SSE,152,3.0,-999.0,75,-99.99,,,-99.99,dwt +perl,2013-03-07 23:34:00,
2013-03-07 15:39:00,36.6,29.1,24.94,South,180,2.0,-999.0,74,-99.99,,,-99.99,dwt +perl,2013-03-07 23:39:00,
2013-03-07 15:44:00,36.9,30.0,24.94,ESE,110,2.0,-999.0,76,-99.99,,,-99.99,dwt +perl,2013-03-07 23:44:00,
2013-03-07 15:49:00,36.6,29.4,24.94,South,184,0.0,-999.0,75,-99.99,,,-99.99,dwt +perl,2013-03-07 23:49:00,
2013-03-07 15:59:00,34.8,29.0,24.94,SSW,199,5.0,-999.0,79,-99.99,,,-99.99,dwt +perl,2013-03-07 23:59:00,
2013-03-07 16:04:00,34.2,28.7,24.94,SW,218,8.0,-999.0,80,-99.99,,,-99.99,dwt +perl,2013-03-08 00:04:00,
2013-03-07 16:09:00,34.0,28.8,24.94,SSW,193,9.0,-999.0,81,-99.99,,,-99.99,dwt +perl,2013-03-08 00:09:00,
2013-03-07 16:14:00,33.6,29.0,24.94,SW,226,7.0,-999.0,83,-99.99,,,-99.99,dwt +perl,2013-03-08 00:14:00,
2013-03-07 16:19:00,33.2,28.9,24.94,SW,214,4.0,-999.0,84,-99.99,,,-99.99,dwt +perl,2013-03-08 00:19:00,
2013-03-07 16:24:00,32.9,28.9,24.93,SSW,192,6.0,-999.0,85,-99.99,,,-99.99,dwt +perl,2013-03-08 00:24:00,
2013-03-07 16:29:00,32.3,28.3,24.93,SSW,201,8.0,-999.0,85,-99.99,,,-99.99,dwt +perl,2013-03-08 00:29:00,
2013-03-07 16:34:00,32.0,28.3,24.93,SSW,210,5.0,-999.0,86,-99.99,,,-99.99,dwt +perl,2013-03-08 00:34:00,
2013-03-07 16:39:00,31.8,27.8,24.93,SSW,213,8.0,-999.0,85,-99.99,,,-99.99,dwt +perl,2013-03-08 00:39:00,
2013-03-07 16:44:00,31.5,27.8,24.93,SW,225,5.0,-999.0,86,-99.99,,,-99.99,dwt +perl,2013-03-08 00:44:00,
2013-03-07 16:49:00,31.3,27.9,24.93,South,189,4.0,-999.0,87,-99.99,,,-99.99,dwt +perl,2013-03-08 00:49:00,
2013-03-07 16:59:00,30.8,27.4,24.93,SSW,201,7.0,-999.0,87,-99.99,,,-99.99,dwt +perl,2013-03-08 00:59:00,
2013-03-07 17:04:00,30.6,27.5,24.92,South,189,9.0,-999.0,88,-99.99,,,-99.99,dwt +perl,2013-03-08 01:04:00,
2013-03-07 17:14:00,30.3,27.2,24.92,SSW,200,9.0,-999.0,88,-99.99,,,-99.99,dwt +perl,2013-03-08 01:14:00,
2013-03-07 17:19:00,30.1,27.5,24.92,South,181,4.0,-999.0,90,-99.99,,,-99.99,dwt +perl,2013-03-08 01:19:00,
2013-03-07 17:24:00,30.0,27.4,24.92,South,179,5.0,-999.0,90,-99.99,,,-99.99,dwt +perl,2013-03-08 01:24:00,
2013-03-07 17:29:00,29.8,27.2,24.92,South,173,2.0,-999.0,90,-99.99,,,-99.99,dwt +perl,2013-03-08 01:29:00,
2013-03-07 17:39:00,29.7,27.4,24.92,SE,127,2.0,-999.0,91,-99.99,,,-99.99,dwt +perl,2013-03-08 01:39:00,
2013-03-07 17:44:00,29.7,27.4,24.92,ESE,109,5.0,-999.0,91,-99.99,,,-99.99,dwt +perl,2013-03-08 01:44:00,
2013-03-07 17:54:00,29.6,27.8,24.92,ENE,77,4.0,-999.0,93,-99.99,,,-99.99,dwt +perl,2013-03-08 01:54:00,
2013-03-07 17:59:00,29.5,27.7,24.92,East,91,2.0,-999.0,93,-99.99,,,-99.99,dwt +perl,2013-03-08 01:59:00,
2013-03-07 18:04:00,29.3,27.5,24.92,ESE,114,4.0,-999.0,93,-99.99,,,-99.99,dwt +perl,2013-03-08 02:04:00,
2013-03-07 18:09:00,29.1,27.3,24.92,ESE,110,3.0,-999.0,93,-99.99,,,-99.99,dwt +perl,2013-03-08 02:09:00,
2013-03-07 18:14:00,29.0,27.2,24.92,SE,125,4.0,-999.0,93,-99.99,,,-99.99,dwt +perl,2013-03-08 02:14:00,
2013-03-07 18:19:00,29.0,27.2,24.92,East,80,3.0,-999.0,93,-99.99,,,-99.99,dwt +perl,2013-03-08 02:19:00,
2013-03-07 18:24:00,29.0,27.5,24.92,ENE,62,7.0,-999.0,94,-99.99,,,-99.99,dwt +perl,2013-03-08 02:24:00,
2013-03-07 18:29:00,28.9,27.4,24.92,ESE,117,7.0,-999.0,94,-99.99,,,-99.99,dwt +perl,2013-03-08 02:29:00,
2013-03-07 18:34:00,28.9,27.4,24.92,East,89,0.0,-999.0,94,-99.99,,,-99.99,dwt +perl,2013-03-08 02:34:00,
2013-03-07 18:39:00,28.9,27.4,24.91,East,79,5.0,-999.0,94,-99.99,,,-99.99,dwt +perl,2013-03-08 02:39:00,
2013-03-07 18:44:00,28.9,27.6,24.91,East,87,3.0,-999.0,95,-99.99,,,-99.99,dwt +perl,2013-03-08 02:44:00,
2013-03-07 18:49:00,28.9,27.6,24.91,East,91,2.0,-999.0,95,-99.99,,,-99.99,dwt +perl,2013-03-08 02:49:00,
2013-03-07 18:54:00,28.9,27.6,24.91,ESE,102,4.0,-999.0,95,-99.99,,,-99.99,dwt +perl,2013-03-08 02:54:00,
2013-03-07 18:59:00,28.8,27.5,24.91,ENE,75,4.0,-999.0,95,-99.99,,,-99.99,dwt +perl,2013-03-08 02:59:00,
2013-03-07 19:04:00,28.9,27.6,24.91,ENE,70,3.0,-999.0,95,-99.99,,,-99.99,dwt +perl,2013-03-08 03:04:00,
2013-03-07 19:09:00,28.9,27.6,24.91,East,97,6.0,-999.0,95,-99.99,,,-99.99,dwt +perl,2013-03-08 03:09:00,
2013-03-07 19:14:00,28.8,27.5,24.91,East,81,5.0,-999.0,95,-99.99,,,-99.99,dwt +perl,2013-03-08 03:14:00,
2013-03-07 19:19:00,28.8,27.5,24.91,ENE,77,1.0,-999.0,95,-99.99,,,-99.99,dwt +perl,2013-03-08 03:19:00,
2013-03-07 19:24:00,28.7,27.5,24.91,SE,130,3.0,-999.0,95,-99.99,,,-99.99,dwt +perl,2013-03-08 03:24:00,
2013-03-07 19:29:00,28.6,27.4,24.91,SE,124,1.0,-999.0,95,-99.99,,,-99.99,dwt +perl,2013-03-08 03:29:00,
2013-03-07 19:34:00,28.5,27.2,24.91,ESE,123,6.0,-999.0,95,-99.99,,,-99.99,dwt +perl,2013-03-08 03:34:00,
2013-03-07 19:39:00,28.5,27.2,24.91,ESE,120,3.0,-999.0,95,-99.99,,,-99.99,dwt +perl,2013-03-08 03:39:00,
2013-03-07 19:44:00,28.5,27.5,24.91,ESE,113,5.0,-999.0,96,-99.99,,,-99.99,dwt +perl,2013-03-08 03:44:00,
2013-03-07 19:49:00,28.6,27.6,24.91,SSE,158,4.0,-999.0,96,-99.99,,,-99.99,dwt +perl,2013-03-08 03:49:00,
2013-03-07 19:54:00,28.6,27.6,24.91,SE,127,8.0,-999.0,96,-99.99,,,-99.99,dwt +perl,2013-03-08 03:54:00,
2013-03-07 19:59:00,28.6,27.6,24.91,SE,141,5.0,-999.0,96,-99.99,,,-99.99,dwt +perl,2013-03-08 03:59:00,
2013-03-07 20:04:00,28.7,27.7,24.91,SSE,167,4.0,-999.0,96,-99.99,,,-99.99,dwt +perl,2013-03-08 04:04:00,
2013-03-07 20:06:00,28.7,27.7,24.91,SE,132,3.0,-999.0,96,-99.99,,,-99.99,dwt +perl,2013-03-08 04:06:00,
2013-03-07 20:14:00,28.7,27.7,24.91,SE,132,3.0,-999.0,96,-99.99,,,-99.99,dwt +perl,2013-03-08 04:14:00,
2013-03-07 20:21:00,28.8,27.8,24.91,SE,127,3.0,-999.0,96,-99.99,,,-99.99,dwt +perl,2013-03-08 04:21:00,
2013-03-07 20:24:00,28.8,27.8,24.90,SE,139,0.0,-999.0,96,-99.99,,,-99.99,dwt +perl,2013-03-08 04:24:00,
2013-03-07 20:29:00,28.8,27.8,24.91,SE,127,3.0,-999.0,96,-99.99,,,-99.99,dwt +perl,2013-03-08 04:29:00,
2013-03-07 20:39:00,28.8,27.8,24.90,SE,125,3.0,-999.0,96,-99.99,,,-99.99,dwt +perl,2013-03-08 04:39:00,
2013-03-07 20:44:00,28.8,27.8,24.90,SSW,198,7.0,-999.0,96,-99.99,,,-99.99,dwt +perl,2013-03-08 04:44:00,
2013-03-07 20:49:00,28.8,27.8,24.90,SSW,211,6.0,-999.0,96,-99.99,,,-99.99,dwt +perl,2013-03-08 04:49:00,
2013-03-07 20:54:00,28.8,27.8,24.90,SSW,199,1.0,-999.0,96,-99.99,,,-99.99,dwt +perl,2013-03-08 04:54:00,
2013-03-07 20:59:00,28.8,27.8,24.90,SSW,204,4.0,-999.0,96,-99.99,,,-99.99,dwt +perl,2013-03-08 04:59:00,
2013-03-07 21:01:00,28.8,27.8,24.90,SSW,208,2.0,-999.0,96,-99.99,,,-99.99,dwt +perl,2013-03-08 05:01:00,
2013-03-07 21:04:00,28.8,27.8,24.90,SSW,204,6.0,-999.0,96,-99.99,,,-99.99,dwt +perl,2013-03-08 05:04:00,
2013-03-07 21:09:00,28.8,27.8,24.90,SSW,208,2.0,-999.0,96,-99.99,,,-99.99,dwt +perl,2013-03-08 05:09:00,
2013-03-07 21:11:00,28.8,27.8,24.91,SW,216,2.0,-999.0,96,-99.99,,,-99.99,dwt +perl,2013-03-08 05:11:00,
2013-03-07 21:19:00,28.8,27.8,24.91,SW,216,2.0,-999.0,96,-99.99,,,-99.99,dwt +perl,2013-03-08 05:19:00,
2013-03-07 21:31:00,28.8,27.8,24.91,SW,217,2.0,-999.0,96,-99.99,,,-99.99,dwt +perl,2013-03-08 05:31:00,
2013-03-07 21:34:00,28.8,27.8,24.91,SW,216,3.0,-999.0,96,-99.99,,,-99.99,dwt +perl,2013-03-08 05:34:00,
2013-03-07 21:39:00,28.8,27.8,24.91,SW,217,2.0,-999.0,96,-99.99,,,-99.99,dwt +perl,2013-03-08 05:39:00,
2013-03-07 21:54:00,28.8,27.8,24.91,SW,216,4.0,-999.0,96,-99.99,,,-99.99,dwt +perl,2013-03-08 05:54:00,
2013-03-07 21:59:00,28.9,27.9,24.91,SW,219,5.0,-999.0,96,-99.99,,,-99.99,dwt +perl,2013-03-08 05:59:00,
2013-03-07 22:04:00,28.9,27.9,24.91,SW,227,3.0,-999.0,96,-99.99,,,-99.99,dwt +perl,2013-03-08 06:04:00,
2013-03-07 22:14:00,28.9,27.9,24.90,WSW,239,4.0,-999.0,96,-99.99,,,-99.99,dwt +perl,2013-03-08 06:14:00,
2013-03-07 22:19:00,28.8,27.8,24.90,West,275,6.0,-999.0,96,-99.99,,,-99.99,dwt +perl,2013-03-08 06:19:00,
2013-03-07 22:24:00,28.7,27.7,24.90,West,262,4.0,-999.0,96,-99.99,,,-99.99,dwt +perl,2013-03-08 06:24:00,
2013-03-07 22:29:00,28.7,27.7,24.90,WSW,254,3.0,-999.0,96,-99.99,,,-99.99,dwt +perl,2013-03-08 06:29:00,
2013-03-07 22:34:00,28.6,27.6,24.90,West,268,3.0,-999.0,96,-99.99,,,-99.99,dwt +perl,2013-03-08 06:34:00,
2013-03-07 22:39:00,28.6,27.6,24.90,West,275,5.0,-999.0,96,-99.99,,,-99.99,dwt +perl,2013-03-08 06:39:00,
2013-03-07 22:44:00,28.6,27.6,24.90,West,278,4.0,-999.0,96,-99.99,,,-99.99,dwt +perl,2013-03-08 06:44:00,
2013-03-07 22:49:00,28.7,27.7,24.90,West,272,4.0,-999.0,96,-99.99,,,-99.99,dwt +perl,2013-03-08 06:49:00,
2013-03-07 22:59:00,28.7,27.7,24.90,WNW,292,4.0,-999.0,96,-99.99,,,-99.99,dwt +perl,2013-03-08 06:59:00,
2013-03-07 23:04:00,28.8,27.8,24.90,WNW,299,2.0,-999.0,96,-99.99,,,-99.99,dwt +perl,2013-03-08 07:04:00,
2013-03-07 23:09:00,28.8,27.8,24.90,WNW,299,1.0,-999.0,96,-99.99,,,-99.99,dwt +perl,2013-03-08 07:09:00,
2013-03-07 23:14:00,28.8,27.8,24.90,WNW,299,2.0,-999.0,96,-99.99,,,-99.99,dwt +perl,2013-03-08 07:14:00,
2013-03-07 23:19:00,28.8,27.8,24.89,WNW,299,1.0,-999.0,96,-99.99,,,-99.99,dwt +perl,2013-03-08 07:19:00,
2013-03-07 23:24:00,28.7,27.7,24.89,WNW,297,2.0,-999.0,96,-99.99,,,-99.99,dwt +perl,2013-03-08 07:24:00,
2013-03-07 23:29:00,28.7,27.7,24.89,WNW,297,1.0,-999.0,96,-99.99,,,-99.99,dwt +perl,2013-03-08 07:29:00,
2013-03-07 23:34:00,28.7,27.7,24.89,WNW,297,2.0,-999.0,96,-99.99,,,-99.99,dwt +perl,2013-03-08 07:34:00,
2013-03-07 23:39:00,28.7,27.7,24.90,WNW,297,2.0,-999.0,96,-99.99,,,-99.99,dwt +perl,2013-03-08 07:39:00,
2013-03-07 23:44:00,28.7,27.7,24.89,WNW,297,0.0,-999.0,96,-99.99,,,-99.99,dwt +perl,2013-03-08 07:44:00,
2013-03-07 23:49:00,28.7,27.7,24.89,WNW,303,4.0,-999.0,96,-99.99,,,-99.99,dwt +perl,2013-03-08 07:49:00,
2013-03-07 23:54:00,28.6,27.6,24.89,WNW,303,1.0,-999.0,96,-99.99,,,-99.99,dwt +perl,2013-03-08 07:54:00,
2013-03-07 23:59:00,28.6,27.6,24.89,NW,308,1.0,-999.0,96,-99.99,,,-99.99,dwt +perl,2013-03-08 07:59:00,